Logo AVAMET
Benvolgut visitant, si us plau, ingressa Recuperar contrasenya
AVAMET paisatges

Teulada Sant Jaume

Dades diàries. Acumulats / Últims 30 dies disponibles

Data Temperatura (°C) Humitat rel. (%) Pressió rel. (hPa) Vent (km/h) Precipitació
Mínima Mitjana Màxima Amplitud
tèrmica
Mínima Mitjana Màxima Mínima Mitjana Màxima Predom. Mitjana Ràfega
màxima
Total
(mm)
Índex-n
Mínima Mitjana Màxima Mínima Mitjana Màxima n
0 a 1
P0 max
mm 5'
Dades mensuals acumulades fins l'últim dia disponible
02/2020 6,3 10,2 14,5 13,4 12,6 17,4 24,4 18,1 35 79 98 1.017 1.022 1.029   4,2 28,3 3,5
Dades anuals acumulades fins l'últim dia disponible
2020 4,9 8,6 14,5 11,7 11,7 15,7 24,4 19,5 35 79 98 1.008 1.021 1.030   5,8 86,6 232,8
Últims 30 dies disponibles
18-02-2020 11,2     11,9     12,6 1,4 96 97 98 1.024 1.027 1.029 SSO 5,3 28,3 1,0
17-02-2020 9,7     11,9     14,5 4,8 95 98 98 1.020 1.021 1.024 OSO 3,6 25,5 0,0
16-02-2020 8,3     11,5     13,8 5,5 96 98 98 1.021 1.023 1.024 SO 8,0 24,4 0,5
15-02-2020 8,2     11,4     14,7 6,5 85 93 98 1.021 1.022 1.024 OSO 5,2 20,5 0,0
14-02-2020 9,6     13,8     17,6 8,0 66 74 90 1.019 1.021 1.022 OSO 4,3 16,8 0,0
13-02-2020 10,2     13,3     17,3 7,1 74 88 98 1.017 1.019 1.020 OSO 3,8 14,1 0,0
12-02-2020 10,6     13,4     17,8 7,2 70 80 93 1.019 1.020 1.021 N 8,7 21,3 0,0
11-02-2020 12,2     16,2     21,6 9,4 56 66 77 1.018 1.020 1.023 OSO 1,8 15,5 0,0
10-02-2020 9,7     15,0     19,7 10,0 60 68 85 1.023 1.025 1.027 SO 5,4 20,5 0,0
09-02-2020 9,1     11,9     16,0 6,9 79 89 98 1.022 1.025 1.028 ONO 6,8 22,9 0,0
08-02-2020 6,8     10,5     15,0 8,2 79 87 97 1.019 1.021 1.023 OSO 1,4 11,5 0,0
07-02-2020 8,4     10,4     14,3 5,9 70 78 85 1.019 1.020 1.022 OSO 2,0 16,8 0,0
06-02-2020 6,3     9,7     14,0 7,7 67 84 97 1.021 1.023 1.025 SSO 1,6 13,7 0,5
05-02-2020 9,1     11,1     14,9 5,8 61 80 94 1.023 1.025 1.027 SO 2,9 14,8 1,5
04-02-2020 14,5     19,0     24,4 9,9 35 44 61 1.019 1.021 1.024 OSO 3,9 24,4 0,0
03-02-2020 13,8     16,9     21,0 7,2 55 63 70 1.023 1.024 1.026 OSO 2,9 13,7 0,0
02-02-2020 13,6     16,6     20,6 7,0 58 67 77 1.022 1.024 1.025 SO 3,0 11,8 0,0
01-02-2020 13,1     17,3     22,7 9,6 52 64 74 1.017 1.019 1.023 ONO 5,5 22,2 0,0
31-01-2020 14,2     16,1     20,1 5,9 54 61 66 1.017 1.018 1.020 ONO 7,6 28,1 0,0
30-01-2020 12,2     15,3     20,5 8,3 50 62 69 1.017 1.018 1.020 OSO 3,0 21,6 0,0
29-01-2020 13,1     15,7     20,2 7,1 54 64 71 1.017 1.018 1.020 ONO 6,8 30,2 0,0
28-01-2020 8,9     13,5     17,5 8,6 62 72 78 1.017 1.018 1.019 OSO 2,7 16,5 0,0
27-01-2020 7,6     10,9     15,3 7,7 59 70 88 1.017 1.019 1.021 O 7,3 25,2 0,0
26-01-2020 7,4     11,1     16,3 8,9 64 81 98 1.014 1.017 1.020 O 3,6 17,2 0,0
25-01-2020 8,2     10,3     13,6 5,4 88 97 98 1.013 1.015 1.017 N 5,9 21,6 0,0
24-01-2020 7,1     10,0     14,4 7,3 87 96 98 1.016 1.017 1.019 NNO 4,4 14,1 0,5
23-01-2020 7,3     9,6     13,0 5,7 84 89 97 1.014 1.016 1.018 SSO 1,7 13,0 0,0
22-01-2020 7,2     9,7     13,8 6,6 83 92 98 1.012 1.014 1.015 ONO 7,0 23,3 0,0
21-01-2020 8,0     11,1     13,8 5,8 80 91 98 1.008 1.010 1.014 SSO 9,4 47,4 11,2 0,42 1,10
20-01-2020 6,2     8,9     11,7 5,5 98 98 98 1.010 1.012 1.014 SO 21,8 86,6 146,2 0,46 14,80
Últims 13 mesos disponibles
01/2020 4,9 7,6 14,2 10,7 11,7 14,8 20,5 15,6 55 79 98 1.010 1.021 1.028 O 6,7 86,6 229,3
12/2019 5,8 10,1 14,4 12,8 12,1 16,7 22,0 16,2 46 77 97 1.001 1.015 1.028 OSO 7,2 54,6 144,0
11/2019 5,8 11,0 20,0 14,2 13,1 18,1 25,7 19,9 39 58 83 994 1.007 1.015 O 9,9 56,4 22,0
10/2019 10,1 15,4 18,9 18,8 15,5 23,1 26,7 16,6 48 77 96 1.004 1.013 1.018 OSO 6,2 84,9 79,2
09/2019 12,8 18,6 22,3 22,0 22,1 26,2 29,5 16,7 65 85 94 1.007 1.015 1.020 OSO 9,0 54,6 152,0
08/2019 17,6 20,6 24,2 24,8 26,5 29,8 36,0 18,4 51 78 89 1.008 1.014 1.017 SO 9,0 42,4 56,9
07/2019 18,6 20,8 25,3 25,5 27,8 30,7 34,5 15,9 39 69 84 1.004 1.012 1.019 SO 8,4 52,5 1,5
06/2019 11,4 16,4 22,2 21,4 22,3 26,6 35,3 23,9 41 69 86 1.006 1.012 1.019 SSO 10,7 43,1 0,5
05/2019 8,2 13,0 19,8 17,0 17,8 21,5 26,4 18,2 55 73 91 1.002 1.012 1.022 SSO 9,4 46,1 15,9
04/2019 6,6 10,4 12,6 13,9 12,7 18,1 25,6 19,0 37 73 98 996 1.009 1.022 SO 11,2 54,6 257,8
03/2019 6,0 8,6 12,0 12,8 12,4 17,8 26,8 20,8 40 63 94 1.010 1.020 1.026 S 10,1 45,0 41,4
02/2019 3,6 6,9 11,1 11,0 11,3 16,2 23,2 19,6 29 66 87 992 1.020 1.029 SO 9,0 72,9 1,5
01/2019 2,4 6,9 10,9 10,3 10,6 15,0 19,4 17,0 35 60 82 999 1.014 1.026 OSO 9,3 62,2 3,6
Tots els anys disponibles
2019 2,4 13,3 25,3 17,1 10,6 21,7 36,0 33,6 29 71 98 992 1.013 1.029 SO 9,1 84,9 776,3
2018 1,9 13,3 24,3 17,0 7,0 21,6 35,4 33,5 33 71 98 57 986 1.028 SSO 9,0 84,2 580,5
2017 -0,4 13,4 25,4 17,3 6,6 22,0 35,8 36,2 31 70 96 971 1.015 1.031 S 9,0 87,0 647,4
2016 2,8 13,6 25,8 17,8 11,2 22,0 38,4 35,6 24 68 98 981 1.017 1.035 57,0 401,7
Temperatura (°C)
Humitat relativa (%)
Velocitat del vent i ràfega màxima (km/h)
Direcció del vent (°)
Pressió (hPa)
Precipitació (mm)
Nota sobre les dades: s'avisa a l'usuari de la provisionalitat i no oficialitat d'aquestes dades
Logo AVAMET blanc
Web allotjada a Sollutia
Llicència de Creative CommonsLa web d'AVAMET i els seus continguts estan subjectes a una llicència de
Reconeixement - No Comercial - Compartir igual
Últimes estacions:  Sorita (AVAMET), Gorga (Soci), Massalavés - Ajuntament (Soci/Inforatge), Albuixech - Polígon (Inforatge), La Torre d'en Besora (Ajuntament soci), Xixona - Sogorb Barranc Blanc (Soci), Pedreguer - Patronat (Soci) - - -